Date,TemperatureHighF,TemperatureAvgF,TemperatureLowF,DewpointHighF,DewpointAvgF,DewpointLowF,HumidityHigh,HumidityAvg,HumidityLow,PressureMaxIn,PressureMinIn,WindSpeedMaxMPH,WindSpeedAvgMPH,GustSpeedMaxMPH,PrecipitationSumIn
2013-1-29,34,29,25,28,23,20,81,80,79,29.78,29.69,3,1,11,0.11
2013-1-30,25,16,6,19,10,0,83,76,70,29.81,29.69,7,2,17,0.00
2013-1-31,6,0,-10,0,-7,-17,80,70,62,30.35,29.81,8,2,17,0.00
2013-2-1,1,-6,-19,-4,-14,-23,83,72,51,30.41,30.18,5,1,11,0.00
2013-2-2,12,4,-4,4,-2,-8,85,75,55,30.29,30.07,5,0,8,0.00
2013-2-3,14,9,1,5,2,-2,85,73,58,30.15,30.05,6,1,9,0.00
2013-2-4,14,8,-3,8,0,-9,84,69,51,30.16,29.81,2,0,10,0.00
2013-2-5,28,19,-1,22,12,-4,85,77,49,30.12,29.71,4,1,11,0.00
2013-2-6,22,13,-3,18,9,-6,85,84,81,30.15,30.02,5,1,10,0.00
2013-2-7,28,24,22,22,19,16,84,81,75,30.31,30.08,2,1,9,0.00
2013-2-8,28,19,2,19,12,-1,86,75,55,30.43,30.27,7,1,12,0.00
2013-2-9,31,28,19,26,22,15,84,81,72,30.26,29.97,8,2,13,0.00
2013-2-10,31,28,26,24,21,18,84,73,63,29.96,29.33,6,2,12,0.00
2013-2-11,29,24,9,24,18,5,85,78,67,30.07,29.36,6,2,15,0.00
2013-2-12,35,21,2,22,14,-1,85,77,59,30.07,29.84,5,1,12,0.00
2013-2-13,39,28,18,28,20,13,84,75,61,29.83,29.61,4,1,9,0.03
2013-2-14,31,24,9,24,13,1,84,65,37,30.21,29.64,4,0,13,0.03
2013-2-15,18,9,1,3,1,-2,83,68,48,30.37,30.21,4,1,12,0.00
2013-2-16,22,6,-6,6,-1,-10,85,74,48,30.33,30.20,3,0,6,0.00
2013-2-17,31,18,-3,20,11,-7,85,74,60,30.19,29.69,6,2,17,0.00
2013-2-18,33,23,8,28,17,2,83,78,70,29.84,29.55,8,2,16,0.00
2013-2-19,11,4,-1,2,-5,-8,78,64,50,30.43,29.85,7,2,17,0.00
2013-2-20,17,2,-15,2,-6,-19,83,70,50,30.57,30.45,3,0,7,0.00
2013-2-21,22,10,-9,16,3,-13,85,72,53,30.58,30.20,5,1,9,0.00
2013-2-22,30,23,13,23,18,9,84,80,71,30.19,29.90,3,0,9,0.05
2013-2-23,35,25,10,25,18,6,84,76,64,29.99,29.88,3,1,7,0.08
2013-2-24,37,19,0,22,12,-3,85,75,54,30.16,30.00,3,0,9,0.08
2013-2-25,38,23,7,23,15,3,84,74,53,30.17,30.09,3,0,7,0.00
2013-2-26,38,24,10,27,18,6,83,77,66,30.12,29.94,4,0,7,0.00
2013-2-27,41,31,27,27,24,22,83,75,52,30.07,29.92,5,1,15,0.00
2013-2-28,30,27,20,22,20,14,78,73,66,30.28,30.07,4,1,8,0.00
2013-3-1,32,23,10,18,15,6,84,73,55,30.41,30.28,3,1,9,0.00
2013-3-2,32,16,-5,12,6,-8,85,67,40,30.43,30.24,2,0,7,0.00
2013-3-3,34,23,11,12,9,5,82,55,39,30.23,30.04,7,2,13,0.00
2013-3-4,25,24,22,20,15,8,83,69,48,30.09,30.00,7,2,16,0.00
2013-3-5,31,25,19,26,19,14,84,80,73,30.35,30.03,1,0,9,0.06
2013-3-6,31,18,1,19,12,-2,85,77,58,30.47,30.35,0,0,1,0.08
2013-3-7,35,16,-4,19,8,-7,85,72,51,30.46,30.35,6,1,14,0.01
2013-3-8,40,26,7,28,19,3,84,76,59,30.39,30.13,4,1,9,0.15
2013-3-9,36,34,32,29,24,22,82,66,61,30.12,29.71,6,1,10,0.42
2013-3-10,34,32,28,29,26,22,84,78,63,30.01,29.83,3,1,14,0.00
2013-3-11,31,27,22,23,21,17,83,78,66,29.92,29.78,4,1,9,0.00
2013-3-12,32,24,19,17,14,9,84,68,45,30.23,29.86,5,2,14,0.00
2013-3-13,34,21,9,16,12,5,85,68,44,30.42,30.24,6,1,9,0.00
2013-3-14,44,30,21,29,22,15,84,74,54,30.29,30.05,4,0,8,0.20
2013-3-15,34,29,21,29,24,16,83,80,71,30.04,29.89,4,1,10,0.03
2013-3-16,26,19,8,17,10,1,85,70,50,30.29,29.96,6,1,13,0.05
2013-3-17,27,13,-5,13,3,-8,85,66,46,30.34,29.95,9,2,15,0.00
2013-3-18,28,22,12,23,15,5,84,74,64,29.94,29.62,11,4,22,0.00
2013-3-19,25,13,6,5,2,-3,76,59,41,30.24,29.85,9,3,18,0.00
2013-3-20,24,12,2,4,0,-5,70,57,42,30.27,30.17,6,2,17,0.00
2013-3-21,7,7,7,0,0,0,69,69,69,30.20,30.20,0,0,3,0.00
2013-3-26,27,27,27,20,20,20,73,73,73,30.32,30.32,0,0,1,0.00
2013-3-27,45,34,22,21,19,16,83,58,33,30.37,30.33,4,0,9,0.00
2013-3-28,49,31,14,23,17,9,83,60,33,30.39,30.30,4,0,8,0.00
2013-3-29,53,38,22,34,28,18,83,69,47,30.32,30.09,5,1,11,0.02
2013-3-30,54,43,34,42,34,28,82,72,52,30.07,29.84,6,1,10,0.58
2013-3-31,39,33,23,30,21,12,83,63,36,30.11,29.79,7,2,16,0.00
2013-4-1,34,24,14,14,12,9,80,61,40,30.31,30.12,10,2,16,0.00
2013-4-2,37,26,14,16,13,9,83,62,39,30.40,30.29,4,1,13,0.00
2013-4-3,46,32,12,31,19,7,83,62,34,30.44,30.06,8,2,19,0.00
2013-4-4,48,41,28,33,28,20,80,61,44,30.18,30.00,11,2,20,0.00
2013-4-5,41,32,20,29,22,15,83,68,39,30.28,29.96,7,2,15,0.00
2013-4-6,49,39,34,38,31,28,82,74,55,29.94,29.55,8,2,15,0.13
2013-4-7,48,38,31,35,31,23,83,75,60,29.96,29.76,3,1,9,0.09
2013-4-8,43,39,36,38,30,24,83,71,61,30.08,29.72,3,0,8,0.38
2013-4-9,44,38,33,32,28,22,83,70,53,30.21,30.04,8,1,16,0.00
2013-4-10,40,36,32,24,22,20,67,58,48,30.22,29.95,9,2,16,0.00
2013-4-11,35,35,35,22,21,18,59,56,50,29.97,29.87,6,2,12,0.00
2013-4-14,33,32,32,25,24,23,76,71,66,29.60,29.54,5,2,12,0.05
2013-4-15,39,35,32,30,28,22,83,75,62,29.97,29.53,11,4,22,0.22
2013-4-16,47,37,30,30,27,25,82,69,47,30.35,29.97,8,2,14,0.00
2013-4-17,40,35,28,32,27,21,83,74,65,30.36,29.98,4,1,10,0.01
2013-4-18,32,31,30,27,22,20,81,69,63,29.98,29.55,3,1,13,0.01
2013-4-19,38,32,27,27,23,14,84,69,54,30.01,29.52,5,0,10,0.29
2013-4-20,43,30,13,19,13,8,84,52,26,30.34,30.02,2,0,7,0.30
2013-4-21,46,38,30,38,30,17,82,72,56,30.34,30.03,8,2,18,0.19
2013-4-22,43,36,31,30,26,20,83,69,52,30.25,30.15,3,1,11,0.00
2013-4-23,42,35,25,28,22,18,84,62,39,30.19,30.09,4,1,12,0.49
2013-4-24,51,35,22,33,25,14,83,70,36,30.10,29.92,14,2,23,0.01
2013-4-25,50,40,29,30,27,23,83,64,39,30.21,30.00,7,2,16,0.01
2013-4-26,72,55,41,43,37,29,79,53,29,30.12,29.96,9,2,14,0.00
2013-4-27,75,56,32,44,32,21,81,47,16,30.13,29.86,6,1,12,0.00
2013-4-28,79,64,51,56,47,44,79,57,34,29.86,29.62,12,3,22,0.02
2013-4-29,75,60,45,53,42,35,79,54,24,29.81,29.53,6,1,12,0.00
2013-4-30,70,63,55,59,45,26,79,55,20,29.91,29.36,8,3,22,0.00
2013-5-1,54,41,34,36,30,25,80,63,50,30.50,29.94,4,1,12,0.09
2013-5-2,48,39,34,29,27,25,74,61,45,30.57,30.46,5,1,12,0.00
2013-5-3,38,34,29,32,26,23,81,75,65,30.45,30.21,5,1,11,0.13
2013-5-4,45,37,32,39,30,22,82,76,62,30.22,30.17,6,1,8,0.09
2013-5-5,68,49,37,49,39,30,82,70,50,30.21,30.08,4,1,7,0.00
2013-5-6,76,57,38,49,41,26,82,57,35,30.13,30.00,4,1,10,0.00
2013-5-7,79,62,44,51,43,30,79,53,27,30.05,29.93,4,1,13,0.00
2013-5-8,79,62,49,56,48,42,79,64,36,30.00,29.93,3,0,14,0.12
2013-5-9,56,51,41,48,42,29,81,71,59,30.13,29.95,4,1,12,0.03
2013-5-10,67,50,32,42,29,22,79,49,19,30.15,29.86,4,1,10,0.00
2013-5-11,54,45,35,40,27,22,70,51,35,30.18,29.87,8,2,23,0.00
2013-5-12,59,43,28,28,23,17,81,50,20,30.25,30.09,4,1,13,0.00
2013-5-13,72,52,28,45,33,20,80,53,29,30.13,29.64,8,2,18,0.02
2013-5-14,95,68,42,54,44,30,80,47,14,29.70,29.43,10,2,21,0.00
2013-5-15,82,67,46,50,44,36,79,48,20,29.88,29.65,9,2,14,0.00
2013-5-16,83,68,46,49,40,29,77,42,22,29.91,29.78,6,2,15,0.00
2013-5-17,67,60,55,51,46,27,77,62,22,29.97,29.88,8,2,12,0.03
2013-5-18,81,64,53,65,53,38,78,67,56,29.97,29.77,8,1,14,0.55
2013-5-19,84,68,62,67,56,46,78,67,56,29.77,29.54,8,2,17,1.33
2013-5-20,72,65,57,61,54,45,80,67,57,29.56,29.48,10,2,15,1.10
2013-5-21,55,50,44,45,38,33,78,65,59,29.74,29.51,7,1,8,0.47
2013-5-22,51,47,43,45,38,31,82,71,61,30.02,29.72,6,1,11,0.13
2013-5-23,65,51,41,39,36,31,83,59,31,30.34,30.03,4,1,9,0.00
2013-5-24,68,53,33,50,36,22,81,56,32,30.40,30.19,5,1,14,0.35
2013-5-25,65,58,52,50,45,39,81,64,50,30.26,30.21,11,2,16,0.04
2013-5-26,63,56,49,47,42,36,76,60,38,30.23,30.05,10,2,16,0.00
2013-5-27,61,58,55,53,49,46,79,74,66,30.05,29.83,7,2,12,0.00
2013-5-28,60,56,53,54,48,41,80,74,57,29.83,29.70,3,1,8,0.05
2013-5-29,78,66,56,67,56,41,80,69,57,29.82,29.61,6,2,13,0.11
2013-5-30,78,68,63,63,57,48,78,68,56,29.64,29.49,10,2,18,0.50
2013-5-31,77,67,56,59,53,45,79,61,47,29.53,29.45,15,3,21,0.29
2013-6-1,71,59,50,59,50,44,81,73,61,29.93,29.51,5,1,12,0.72
2013-6-2,68,56,46,48,43,39,80,63,39,30.07,29.94,3,1,12,0.00
2013-6-3,68,57,41,51,42,30,82,58,39,30.06,29.95,3,0,7,0.00
2013-6-4,63,57,53,55,47,40,80,69,53,30.09,29.99,7,1,14,0.43
2013-6-5,59,54,50,52,43,37,78,66,58,30.05,29.95,4,1,10,0.11
2013-6-6,55,51,48,50,42,34,82,71,60,30.04,29.98,2,0,7,0.01
2013-6-7,64,56,48,54,47,36,82,73,62,30.06,29.92,1,0,4,0.00
2013-6-8,71,62,51,56,49,37,82,63,55,29.91,29.87,5,1,10,0.00
2013-6-9,62,58,55,55,47,43,81,68,58,29.88,29.78,5,1,14,0.58
2013-6-10,75,63,55,62,52,41,82,67,58,29.85,29.79,2,0,5,0.00
2013-6-11,78,65,51,68,55,38,82,71,59,29.87,29.79,3,0,6,0.00
2013-6-12,77,64,57,66,55,46,82,72,57,29.91,29.75,3,0,10,0.25
2013-6-13,79,66,52,60,54,46,82,66,45,30.07,29.92,3,1,8,0.00
2013-6-14,78,67,51,62,56,40,82,68,54,30.06,29.84,10,2,18,0.00
2013-6-15,76,69,57,68,61,44,80,75,60,29.86,29.80,3,0,11,0.01
2013-6-16,86,69,51,60,49,40,81,53,27,29.89,29.79,8,1,23,0.01
2013-6-17,80,68,55,62,54,41,80,62,44,30.01,29.82,4,1,11,0.00
2013-6-18,77,63,47,59,51,42,82,68,46,30.08,30.00,2,0,8,0.00
2013-6-19,84,70,53,64,57,41,81,63,48,30.04,29.91,4,1,11,0.00
2013-6-20,88,76,64,71,65,56,79,69,48,29.95,29.83,6,1,12,0.00
2013-6-21,76,74,70,67,65,60,77,74,72,29.81,29.71,6,3,12,0.18
2013-6-23,72,67,64,64,56,49,79,68,59,29.83,29.78,0,0,16,0.00
2013-6-24,83,72,58,71,60,45,80,66,58,29.87,29.75,5,1,9,0.00
2013-6-25,86,75,61,72,62,47,81,67,57,29.79,29.67,8,1,11,0.00
2013-6-26,88,79,69,75,66,55,79,64,54,29.75,29.61,7,1,12,0.00
2013-6-27,86,74,64,67,58,49,81,59,40,29.76,29.73,6,1,22,0.00
2013-6-28,78,68,61,64,59,49,81,72,60,29.77,29.72,5,1,15,0.24
2013-6-29,78,67,57,64,54,46,81,63,51,29.96,29.72,2,1,8,0.25
2013-6-30,84,67,53,61,52,40,82,60,39,30.09,29.98,6,1,7,0.00
2013-7-1,85,70,55,66,54,42,81,58,39,30.16,30.09,3,0,7,0.00
2013-7-2,84,69,54,59,54,45,81,61,37,30.14,30.02,3,0,7,0.00
2013-7-3,84,69,54,60,51,41,81,55,35,30.05,29.91,3,0,9,0.00
2013-7-4,88,73,56,64,56,43,81,59,33,29.93,29.81,8,1,14,0.00
2013-7-5,88,80,70,65,62,57,68,55,41,29.84,29.74,8,3,18,0.00
2013-7-6,84,77,71,75,66,62,79,69,56,29.82,29.75,3,1,11,0.00
2013-7-7,92,79,68,75,66,52,79,65,54,29.84,29.76,5,1,13,0.62
2013-7-8,84,69,59,72,57,45,81,66,58,29.98,29.85,3,0,6,0.01
2013-7-9,86,74,67,73,62,52,80,66,58,29.93,29.70,6,1,18,1.02
2013-7-10,80,69,58,63,57,50,81,67,44,30.01,29.88,4,1,12,0.00
2013-7-11,84,71,56,64,54,42,82,58,42,30.08,29.93,6,1,10,0.00
2013-7-12,89,78,68,65,61,57,71,57,44,29.96,29.83,8,3,17,0.00
2013-7-13,80,73,67,72,63,52,79,72,56,30.02,29.87,9,2,19,1.50
2013-7-14,86,74,69,72,65,56,79,73,54,30.14,30.01,5,1,9,0.02
2013-7-15,88,76,64,71,62,49,80,63,52,30.19,30.11,4,1,9,0.00
2013-7-16,91,80,72,74,69,61,79,69,55,30.15,30.10,6,1,11,0.00
2013-7-17,91,80,68,76,66,53,80,62,52,30.19,30.05,6,1,15,0.00
2013-7-18,92,82,71,75,68,56,79,63,50,30.05,29.68,6,2,20,0.00
2013-7-19,83,78,66,71,65,56,80,66,50,29.84,29.64,7,2,16,0.01
2013-7-20,77,68,61,61,56,48,80,65,52,29.93,29.81,2,0,6,0.01
2013-7-21,80,68,54,68,60,48,81,76,67,29.93,29.77,4,1,9,0.00
2013-7-22,86,74,65,72,62,57,80,69,50,29.80,29.63,6,2,11,0.00
2013-7-23,77,66,56,57,54,46,82,67,47,30.00,29.82,3,0,13,0.00
2013-7-24,78,64,53,61,53,41,81,67,52,30.06,29.93,5,1,6,0.01
2013-7-25,78,69,59,67,59,46,81,71,61,29.94,29.86,2,0,12,0.06
2013-7-26,68,61,55,59,53,46,81,74,61,30.07,29.87,9,1,14,0.08
2013-7-27,60,54,51,54,48,45,82,80,68,30.07,29.93,7,1,12,0.14
2013-7-28,73,59,47,57,50,40,82,71,52,30.04,29.96,2,1,8,0.00
2013-7-29,77,63,47,60,50,36,81,64,47,30.12,30.05,6,1,10,0.00
2013-7-30,70,64,59,64,54,46,81,70,60,30.09,30.02,2,0,5,0.29
2013-7-31,78,66,57,65,54,44,82,66,47,30.05,29.95,3,0,11,0.00
2013-8-1,79,65,50,64,52,38,81,63,45,30.00,29.84,2,0,10,0.00
2013-8-2,76,65,53,60,51,41,82,63,48,30.02,29.83,4,0,7,0.00
2013-8-3,77,62,48,58,48,36,83,60,41,30.18,30.02,2,0,10,0.00
2013-8-4,77,62,48,58,49,36,81,63,44,30.22,30.00,5,1,8,0.00
2013-8-5,79,67,58,69,58,47,82,72,60,29.99,29.75,3,0,8,0.40
2013-8-6,80,65,54,69,54,41,83,68,62,29.81,29.66,5,1,13,0.06
2013-8-7,76,65,54,58,52,44,82,63,46,30.00,29.75,3,1,8,0.01
2013-8-8,76,63,52,61,52,39,83,66,54,30.03,29.95,5,1,9,0.00
2013-8-9,75,64,52,59,51,40,82,63,48,30.10,29.97,4,1,12,0.00
2013-8-10,77,64,53,59,52,42,82,67,47,30.16,30.07,2,0,7,0.00
2013-8-11,81,67,54,64,55,42,80,65,51,30.07,29.96,3,0,6,0.00
2013-8-12,80,66,55,62,52,42,82,62,43,30.05,29.97,4,1,10,0.03
2013-8-13,76,62,51,57,47,38,83,59,34,30.18,30.06,3,0,7,0.00
2013-8-14,79,62,48,59,48,36,81,61,40,30.18,30.07,4,1,10,0.00
2013-8-15,79,63,49,62,50,37,81,64,48,30.11,30.05,3,0,11,0.00
2013-8-16,80,67,56,63,52,42,81,61,44,30.16,30.11,4,1,10,0.00
2013-8-17,82,66,51,60,51,38,81,60,45,30.17,30.07,9,1,12,0.00
2013-8-18,82,68,52,61,53,39,81,60,44,30.11,29.96,8,1,14,0.00
2013-8-19,87,76,65,70,65,59,81,70,57,29.97,29.84,5,1,12,0.00
2013-8-20,91,79,68,74,68,57,80,71,55,29.86,29.79,9,1,14,0.00
2013-8-21,89,77,66,76,67,56,80,71,49,29.96,29.77,4,1,10,0.00
2013-8-22,86,71,58,59,54,50,82,59,31,30.10,29.96,2,0,7,0.00
2013-8-23,88,68,50,66,53,38,79,59,41,30.13,30.00,5,1,11,0.00
2013-8-24,90,79,70,72,68,64,81,70,53,30.02,29.86,14,3,21,0.00
2013-8-25,95,85,78,76,73,70,78,69,54,29.94,29.85,8,3,15,0.00
2013-8-26,96,85,76,77,74,68,80,70,52,29.91,29.76,5,2,12,0.00
2013-8-27,93,82,71,78,72,59,80,71,57,29.87,29.72,4,1,9,0.00
2013-8-28,90,75,66,73,63,52,81,66,47,29.97,29.87,4,0,9,0.00
2013-8-29,92,80,68,77,68,58,80,69,51,29.96,29.78,6,1,14,0.01
2013-8-30,86,75,65,71,65,58,82,72,53,29.90,29.77,5,1,9,0.00
2013-8-31,88,71,58,69,59,45,81,67,49,29.86,29.67,4,1,20,0.15
2013-9-1,72,66,58,62,58,53,82,76,67,29.96,29.70,5,1,11,0.00
2013-9-2,69,58,49,54,50,38,83,75,59,30.08,29.96,3,0,6,0.00
2013-9-3,78,60,43,61,48,33,83,66,50,30.09,29.96,5,1,9,0.00
2013-9-4,84,67,54,67,54,42,81,64,49,30.13,30.00,3,0,7,0.00
2013-9-5,84,68,52,64,55,40,83,65,46,30.21,30.07,4,1,8,0.00
2013-9-6,91,78,67,69,64,54,81,64,45,30.06,29.81,6,2,15,0.00
2013-9-7,94,78,65,71,65,51,81,65,43,29.99,29.80,4,1,9,0.00
2013-9-8,70,64,60,60,56,51,82,77,70,30.03,29.87,5,1,11,0.01
2013-9-9,90,74,64,75,64,54,82,72,61,29.87,29.59,6,1,10,0.05
2013-9-10,83,72,62,68,60,54,81,68,47,29.94,29.72,5,1,15,0.03
2013-9-11,84,70,57,64,53,44,82,58,34,30.03,29.95,5,1,15,0.00
2013-9-12,73,61,46,57,48,38,82,65,42,30.22,30.03,6,1,15,0.00
2013-9-13,71,54,39,50,41,29,82,63,41,30.28,30.08,3,1,7,0.00
2013-9-14,71,55,42,57,44,32,80,66,50,30.08,29.90,5,1,11,0.62
2013-9-15,66,55,44,54,45,35,82,68,62,30.32,29.89,2,0,9,0.28
2013-9-16,67,50,36,44,36,27,84,62,35,30.42,30.26,5,1,11,0.00
2013-9-17,69,56,45,55,48,39,84,75,60,30.26,29.94,10,2,15,0.02
2013-9-18,72,65,58,66,55,46,81,69,61,29.93,29.67,4,1,11,0.05
2013-9-19,75,68,61,68,57,48,82,68,60,29.75,29.59,13,1,24,0.84
2013-9-20,64,57,48,55,50,40,83,78,61,29.91,29.74,5,1,11,0.00
2013-9-21,64,51,42,49,42,32,84,71,57,29.99,29.91,6,0,8,0.01
2013-9-22,72,56,42,57,46,32,85,69,58,29.99,29.85,8,2,13,0.00
2013-9-23,73,62,53,56,52,48,83,71,52,29.93,29.85,7,2,17,0.00
2013-9-24,76,59,49,58,49,38,83,69,47,29.96,29.90,5,1,9,0.00
2013-9-25,74,60,47,58,48,36,84,66,50,29.96,29.86,6,1,12,0.00
2013-9-26,80,67,55,63,56,50,83,71,55,29.91,29.80,11,2,17,0.00
2013-9-27,82,72,66,66,62,59,81,71,53,29.88,29.75,10,2,18,0.01
2013-9-28,74,60,43,61,53,34,84,76,65,29.90,29.58,11,2,17,0.24
2013-9-29,76,58,40,52,42,30,83,58,38,29.95,29.76,5,1,13,0.01
2013-9-30,79,67,58,56,51,47,69,57,43,29.75,29.55,7,2,16,0.00
2013-10-1,74,64,44,54,46,36,83,56,26,29.95,29.52,6,2,17,0.00
2013-10-2,74,55,38,51,40,28,81,61,28,30.04,29.86,7,1,14,0.26
2013-10-3,56,54,53,45,43,42,71,66,64,29.95,29.86,3,0,11,0.22
2013-10-4,58,55,53,53,48,43,82,76,65,30.00,29.87,4,1,12,0.07
2013-10-5,58,54,46,47,43,35,82,67,63,29.87,29.73,3,0,11,0.38
2013-10-6,52,47,41,46,38,31,81,70,65,29.84,29.68,2,0,9,0.07
2013-10-7,67,50,38,50,39,30,85,68,43,29.98,29.83,5,0,9,0.01
2013-10-8,76,61,43,50,46,32,84,60,39,29.97,29.78,6,2,19,0.00
2013-10-9,76,64,56,54,51,48,80,62,46,30.01,29.89,9,2,15,0.00
2013-10-10,77,62,50,56,50,45,83,68,43,30.01,29.86,7,1,13,0.00
2013-10-11,73,64,55,59,54,50,83,70,54,29.86,29.58,14,3,24,0.31
2013-10-12,59,50,42,54,43,34,84,79,68,30.15,29.65,9,2,20,0.01
2013-10-13,60,44,32,43,34,24,83,68,41,30.44,30.16,3,0,7,0.00
2013-10-14,53,44,35,43,36,25,84,73,60,30.42,30.00,4,0,10,0.24
2013-10-15,47,47,47,38,38,37,71,70,68,30.00,29.94,4,3,9,0.24
2013-10-18,40,39,38,36,34,33,84,83,81,29.89,29.85,0,0,3,0.22
2013-10-19,46,38,30,39,31,22,84,76,65,29.83,29.70,3,0,10,0.04
2013-10-20,38,33,28,30,24,20,80,71,68,29.89,29.66,3,0,9,0.16
2013-10-21,39,33,26,30,25,22,86,73,56,29.98,29.91,5,1,14,0.00
2013-10-22,40,32,22,33,26,16,85,78,67,30.06,29.98,1,0,7,0.01
2013-10-23,37,33,29,30,25,21,86,73,62,30.13,30.02,4,1,15,0.01
2013-10-24,41,36,31,31,28,22,84,73,57,30.33,30.13,3,0,13,0.00
2013-10-25,56,42,27,44,33,20,85,73,56,30.33,29.78,9,2,18,0.00
2013-10-26,50,41,34,40,31,28,80,67,57,30.11,29.79,5,1,13,0.00
2013-10-27,57,40,27,37,30,22,85,68,45,30.17,29.83,5,1,14,0.00
2013-10-28,44,34,27,30,24,20,85,68,42,30.48,30.19,5,1,15,0.00
2013-10-29,36,33,25,32,28,21,85,81,71,30.46,30.14,5,0,8,0.05
2013-10-30,46,42,36,36,32,28,77,68,66,30.14,29.69,2,0,4,0.12
2013-10-31,46,42,38,36,33,30,81,71,66,29.68,29.40,7,1,8,0.08
2013-11-1,51,41,33,39,34,28,86,76,61,29.85,29.41,4,1,11,0.00
2013-11-2,50,37,27,34,29,20,85,75,49,30.11,29.86,4,0,10,0.00
2013-11-3,54,42,28,36,32,21,86,68,48,30.14,29.90,8,2,24,0.00
2013-11-4,48,42,28,41,34,20,84,74,60,30.14,29.82,10,2,19,0.15
2013-11-5,40,32,24,34,24,16,84,75,69,30.27,30.08,1,0,4,0.18
2013-11-6,40,31,25,31,25,20,86,78,67,30.18,30.07,3,0,8,0.26
2013-11-7,37,27,18,31,21,13,86,79,73,30.27,30.18,3,0,8,0.00
2013-11-8,43,32,19,35,25,14,85,75,64,30.23,29.61,5,1,15,0.15
2013-11-9,42,39,37,36,32,28,84,76,65,30.19,29.62,11,3,22,0.00
2013-11-10,41,36,26,31,29,22,85,76,65,30.35,30.13,7,1,16,0.00
2013-11-11,35,22,12,30,13,7,83,67,52,30.77,30.14,6,1,15,0.00
2013-11-12,28,19,9,15,10,6,85,69,45,30.83,30.49,4,1,11,0.00
2013-11-13,50,34,19,34,25,13,83,69,51,30.48,29.89,7,2,16,0.00
2013-11-14,52,38,27,39,31,20,84,78,60,29.88,29.75,4,0,9,0.00
2013-11-15,56,39,24,40,30,16,85,71,52,29.86,29.64,4,1,12,0.00
2013-11-16,45,43,38,40,35,32,84,74,66,29.64,29.25,6,1,11,0.14
2013-11-17,43,39,30,38,32,24,85,76,67,29.81,29.29,9,2,20,0.01
2013-11-18,33,26,17,24,20,13,86,76,64,30.30,29.82,13,2,20,0.00
2013-11-19,44,32,16,31,23,12,86,72,54,30.31,29.93,7,2,20,0.00
2013-11-20,45,41,36,32,30,27,85,65,53,30.04,29.90,10,2,14,0.00
2013-11-21,36,30,23,32,24,15,86,78,70,30.56,30.05,4,1,13,0.00
2013-11-22,33,20,10,16,10,4,87,66,31,30.68,30.49,9,1,17,0.00
2013-11-23,18,8,2,5,1,-2,85,73,45,30.91,30.70,5,1,11,0.00
2013-11-24,31,18,2,18,9,-1,86,68,49,30.78,30.00,12,3,21,0.00
2013-11-25,37,32,27,28,23,18,85,70,57,30.10,29.91,10,3,18,0.00
2013-11-26,28,18,9,18,8,4,80,63,51,30.44,30.11,10,2,19,0.00
2013-11-27,22,14,1,11,6,-2,87,72,57,30.45,30.14,4,1,9,0.00
2013-11-28,25,19,5,15,10,2,86,70,57,30.56,30.13,4,0,10,0.00
2013-11-29,31,20,2,21,13,0,87,75,58,30.57,30.20,8,1,14,0.00
2013-11-30,38,28,17,27,22,13,86,77,65,30.21,30.07,2,0,6,0.00
2013-12-1,33,22,12,26,17,8,86,82,71,30.23,29.98,3,0,5,0.00
2013-12-2,37,31,24,32,26,20,86,81,72,29.97,29.62,5,1,11,0.17
2013-12-3,33,33,30,26,24,24,83,72,69,29.83,29.62,2,1,8,0.22
2013-12-4,30,26,15,25,21,10,87,82,78,29.82,29.50,3,0,7,0.00
2013-12-5,13,4,-4,9,-1,-8,83,78,67,30.40,29.69,0,0,0,0.00
2013-12-6,5,-5,-13,-4,-10,-16,86,78,62,30.74,30.40,0,0,0,0.00
2013-12-7,0,-11,-20,-9,-16,-24,84,78,63,30.83,30.69,0,0,0,0.00
2013-12-8,9,2,-14,5,-2,-18,87,84,79,30.69,30.13,0,0,0,0.00
2013-12-9,4,-2,-8,0,-7,-12,87,79,64,30.17,29.96,0,0,0,0.00
2013-12-10,7,1,-4,-1,-4,-8,86,79,65,30.36,29.87,0,0,0,0.00
2013-12-11,1,-6,-15,-7,-12,-19,83,74,58,30.66,30.38,0,0,0,0.00
2013-12-12,16,7,-8,10,1,-11,86,78,64,30.39,30.23,0,0,0,0.00
2013-12-13,14,10,7,10,5,3,84,80,76,30.38,30.22,0,0,0,0.00
2013-12-14,14,8,-2,7,3,-8,85,81,72,30.38,30.16,0,0,0,0.00
2013-12-15,3,-3,-9,-7,-10,-14,81,71,53,30.25,30.18,0,0,0,0.00
2013-12-16,16,6,-3,11,1,-10,86,80,69,30.23,29.96,0,0,0,0.00
2013-12-17,30,20,-4,26,13,-7,86,77,61,30.16,29.91,2,0,11,0.00
2013-12-18,34,17,-1,24,12,-5,87,80,63,30.12,29.70,4,1,14,0.00
2013-12-19,21,15,12,18,10,6,86,80,72,30.15,29.87,2,0,9,0.00
2013-12-20,20,13,6,12,8,2,87,82,71,30.12,29.96,1,0,7,0.00
2013-12-21,22,18,12,16,13,9,86,81,75,30.07,29.98,1,0,4,0.00
2013-12-22,18,14,7,13,10,3,86,84,76,30.28,30.02,1,0,5,0.00
2013-12-23,6,-2,-15,3,-7,-19,84,79,71,30.60,30.29,0,0,0,0.00
2013-12-24,8,-5,-24,5,-10,-29,85,77,59,30.59,30.23,0,0,1,0.00
2013-12-25,23,14,8,18,9,4,87,82,71,30.23,30.11,0,0,7,0.00
2013-12-26,22,16,8,18,12,5,87,84,78,30.23,30.13,3,0,4,0.00
2013-12-27,39,24,3,31,18,0,87,81,71,30.22,29.91,4,0,12,0.15
2013-12-28,44,28,16,33,22,11,86,79,64,30.06,29.69,7,1,13,0.21
2013-12-29,14,-5,-24,9,-12,-28,81,69,49,30.39,30.07,5,1,16,0.00
2013-12-30,0,-11,-26,-6,-16,-30,84,80,74,30.40,30.31,2,0,5,0.00
2013-12-31,-3,-14,-23,-11,-19,-27,84,78,63,30.55,30.32,1,0,5,0.00
2014-1-1,0,-5,-12,-9,-12,-17,79,72,66,30.63,30.54,1,0,4,0.00
2014-1-2,4,-10,-21,-11,-17,-25,83,70,46,30.63,30.54,1,0,5,0.00